createdAt,value
2018-03-04T00:00:08.568Z,991.81
2018-03-04T00:01:08.576Z,991.79
2018-03-04T00:02:08.583Z,991.78
2018-03-04T00:03:08.591Z,991.8
2018-03-04T00:04:08.599Z,991.82
2018-03-04T00:05:08.607Z,991.8
2018-03-04T00:06:08.612Z,991.75
2018-03-04T00:07:08.622Z,991.73
2018-03-04T00:08:08.639Z,991.72
2018-03-04T00:09:08.637Z,991.73
2018-03-04T00:10:08.643Z,991.74
2018-03-04T00:11:08.650Z,991.72
2018-03-04T00:12:08.661Z,991.71
2018-03-04T00:13:08.666Z,991.72
2018-03-04T00:14:08.672Z,991.78
2018-03-04T00:15:08.716Z,991.77
2018-03-04T00:16:08.688Z,991.81
2018-03-04T00:17:08.696Z,991.8
2018-03-04T00:18:08.702Z,991.82
2018-03-04T00:19:08.709Z,991.8
2018-03-04T00:20:08.716Z,991.8
2018-03-04T00:21:08.725Z,991.84
2018-03-04T00:22:08.733Z,991.89
2018-03-04T00:23:08.740Z,991.91
2018-03-04T00:24:08.746Z,991.91
2018-03-04T00:25:08.753Z,991.86
2018-03-04T00:26:08.762Z,991.87
2018-03-04T00:27:08.773Z,991.87
2018-03-04T00:28:08.780Z,991.87
2018-03-04T00:29:08.783Z,991.83
2018-03-04T00:30:08.792Z,991.86
2018-03-04T00:31:08.798Z,991.87
2018-03-04T00:32:08.806Z,991.88
2018-03-04T00:33:08.813Z,991.93
2018-03-04T00:34:08.820Z,991.93
2018-03-04T00:35:08.827Z,991.94
2018-03-04T00:36:08.836Z,991.93
2018-03-04T00:37:08.843Z,991.93
2018-03-04T00:38:08.852Z,991.94
2018-03-04T00:39:08.856Z,991.93
2018-03-04T00:40:08.865Z,991.99
2018-03-04T00:41:08.874Z,991.99
2018-03-04T00:42:08.883Z,992
2018-03-04T00:43:08.886Z,992.01
2018-03-04T00:44:08.895Z,992.05
2018-03-04T00:45:08.903Z,992.07
2018-03-04T00:46:08.913Z,992.08
2018-03-04T00:47:08.918Z,992.08
2018-03-04T00:48:08.925Z,992.11
2018-03-04T00:49:08.932Z,992.09
2018-03-04T00:50:08.939Z,992.11
2018-03-04T00:51:08.948Z,992.14
2018-03-04T00:52:08.954Z,992.09
2018-03-04T00:53:08.960Z,992.1
2018-03-04T00:54:08.968Z,992.1
2018-03-04T00:55:08.977Z,992.07
2018-03-04T00:56:08.984Z,992.11
2018-03-04T00:57:08.990Z,992.09
2018-03-04T00:58:08.998Z,992.07
2018-03-04T00:59:09.007Z,992.1
2018-03-04T01:00:09.016Z,992.1
2018-03-04T01:01:09.022Z,992.14
2018-03-04T01:02:09.029Z,992.13
2018-03-04T01:03:09.037Z,992.13
2018-03-04T01:04:09.042Z,992.13
2018-03-04T01:05:09.050Z,992.09
2018-03-04T01:06:09.059Z,992.13
2018-03-04T01:07:09.066Z,992.12
2018-03-04T01:08:09.074Z,992.14
2018-03-04T01:09:09.081Z,992.12
2018-03-04T01:10:09.088Z,992.1
2018-03-04T01:11:09.098Z,992.11
2018-03-04T01:12:09.103Z,992.16
2018-03-04T01:13:09.110Z,992.14
2018-03-04T01:14:09.119Z,992.14
2018-03-04T01:15:09.125Z,992.08
2018-03-04T01:16:09.133Z,992.08
2018-03-04T01:17:09.190Z,992.08
2018-03-04T01:18:09.148Z,992.04
2018-03-04T01:19:09.157Z,992.02
2018-03-04T01:20:09.164Z,992.01
2018-03-04T01:21:09.170Z,992.03
2018-03-04T01:22:09.178Z,992.05
2018-03-04T01:23:09.185Z,992.05
2018-03-04T01:24:09.197Z,992.08
2018-03-04T01:25:09.202Z,992.02
2018-03-04T01:26:09.210Z,991.97
2018-03-04T01:27:09.266Z,991.93
2018-03-04T01:28:09.222Z,991.94
2018-03-04T01:29:09.230Z,991.93
2018-03-04T01:30:09.241Z,991.95
2018-03-04T01:31:09.251Z,991.97
2018-03-04T01:32:09.303Z,991.96
2018-03-04T01:33:09.260Z,992
2018-03-04T01:34:09.271Z,992
2018-03-04T01:35:09.275Z,991.95
2018-03-04T01:36:09.283Z,991.95
2018-03-04T01:37:09.343Z,991.99
2018-03-04T01:38:09.298Z,991.94
2018-03-04T01:39:09.306Z,991.95
2018-03-04T01:40:09.314Z,991.92
2018-03-04T01:41:09.322Z,991.9
2018-03-04T01:42:09.329Z,991.88
2018-03-04T01:43:09.335Z,991.85
2018-03-04T01:44:09.344Z,991.83
2018-03-04T01:45:09.351Z,991.88
2018-03-04T01:46:09.359Z,991.89
2018-03-04T01:47:09.365Z,991.84
2018-03-04T01:48:09.373Z,991.84
2018-03-04T01:49:09.380Z,991.87
2018-03-04T01:50:09.390Z,991.85
2018-03-04T01:51:09.396Z,991.85
2018-03-04T01:52:09.403Z,991.84
2018-03-04T01:53:09.410Z,991.84
2018-03-04T01:54:09.421Z,991.84
2018-03-04T01:55:09.426Z,991.8
2018-03-04T01:56:09.432Z,991.81
2018-03-04T01:57:09.441Z,991.78
2018-03-04T01:58:09.448Z,991.8
2018-03-04T01:59:09.459Z,991.77
2018-03-04T02:00:09.462Z,991.78
2018-03-04T02:01:09.471Z,991.79
2018-03-04T02:02:09.479Z,991.82
2018-03-04T02:03:09.486Z,991.82
2018-03-04T02:04:09.495Z,991.8
2018-03-04T02:05:09.507Z,991.79
2018-03-04T02:06:09.509Z,991.8
2018-03-04T02:07:09.517Z,991.78
2018-03-04T02:08:09.525Z,991.79
2018-03-04T02:09:09.533Z,991.81
2018-03-04T02:10:09.539Z,991.84
2018-03-04T02:11:09.547Z,991.86
2018-03-04T02:12:09.562Z,991.84
2018-03-04T02:13:09.563Z,991.83
2018-03-04T02:14:09.568Z,991.87
2018-03-04T02:15:09.576Z,991.86
2018-03-04T02:16:09.584Z,991.85
2018-03-04T02:17:09.592Z,991.84
2018-03-04T02:18:09.598Z,991.86
2018-03-04T02:19:09.608Z,991.84
2018-03-04T02:20:09.615Z,991.84
2018-03-04T02:21:09.621Z,991.88
2018-03-04T02:22:09.632Z,991.8
2018-03-04T02:23:09.642Z,991.82
2018-03-04T02:24:09.647Z,991.78
2018-03-04T02:25:09.667Z,991.8
2018-03-04T02:26:09.662Z,991.75
2018-03-04T02:27:09.667Z,991.74
2018-03-04T02:28:09.674Z,991.79
2018-03-04T02:29:09.683Z,991.81
2018-03-04T02:30:09.692Z,991.81
2018-03-04T02:31:09.699Z,991.79
2018-03-04T02:32:09.705Z,991.84
2018-03-04T02:33:09.733Z,991.8
2018-03-04T02:34:09.736Z,991.77
2018-03-04T02:35:09.728Z,991.74
2018-03-04T02:36:09.738Z,991.73
2018-03-04T02:37:09.744Z,991.72
2018-03-04T02:38:09.750Z,991.7
2018-03-04T02:39:09.760Z,991.68
2018-03-04T02:40:09.765Z,991.63
2018-03-04T02:41:09.776Z,991.65
2018-03-04T02:42:09.781Z,991.64
2018-03-04T02:43:09.839Z,991.63
2018-03-04T02:44:09.796Z,991.61
2018-03-04T02:45:09.805Z,991.54
2018-03-04T02:46:09.813Z,991.54
2018-03-04T02:47:09.817Z,991.52
2018-03-04T02:48:09.877Z,991.53
2018-03-04T02:49:09.837Z,991.55
2018-03-04T02:50:09.841Z,991.56
2018-03-04T02:51:09.850Z,991.53
2018-03-04T02:52:09.858Z,991.56
2018-03-04T02:53:09.916Z,991.53
2018-03-04T02:54:09.873Z,991.57
2018-03-04T02:55:09.907Z,991.56
2018-03-04T02:56:09.889Z,991.48
2018-03-04T02:57:09.929Z,991.52
2018-03-04T02:58:10.076Z,991.5
2018-03-04T02:59:09.988Z,991.5
2018-03-04T03:00:09.994Z,991.49
2018-03-04T03:01:10.005Z,991.5
2018-03-04T03:02:10.010Z,991.53
2018-03-04T03:03:10.120Z,991.49
2018-03-04T03:04:10.021Z,991.56
2018-03-04T03:05:09.957Z,991.53
2018-03-04T03:06:09.964Z,991.56
2018-03-04T03:07:09.982Z,991.54
2018-03-04T03:08:09.979Z,991.47
2018-03-04T03:09:09.987Z,991.51
2018-03-04T03:10:09.995Z,991.47
2018-03-04T03:11:10.003Z,991.51
2018-03-04T03:12:10.013Z,991.49
2018-03-04T03:13:10.017Z,991.5
2018-03-04T03:14:10.072Z,991.49
2018-03-04T03:15:10.121Z,991.48
2018-03-04T03:16:10.093Z,991.49
2018-03-04T03:17:10.050Z,991.48
2018-03-04T03:18:10.057Z,991.52
2018-03-04T03:19:10.064Z,991.47
2018-03-04T03:20:10.070Z,991.48
2018-03-04T03:21:10.078Z,991.49
2018-03-04T03:22:10.149Z,991.5
2018-03-04T03:23:10.093Z,991.49
2018-03-04T03:24:10.102Z,991.53
2018-03-04T03:25:10.110Z,991.56
2018-03-04T03:26:10.117Z,991.53
2018-03-04T03:27:10.125Z,991.54
2018-03-04T03:28:10.141Z,991.59
2018-03-04T03:29:10.141Z,991.6
2018-03-04T03:30:10.150Z,991.56
2018-03-04T03:31:10.155Z,991.62
2018-03-04T03:32:10.165Z,991.64
2018-03-04T03:33:10.169Z,991.68
2018-03-04T03:34:10.176Z,991.7
2018-03-04T03:35:10.229Z,991.69
2018-03-04T03:36:10.197Z,991.7
2018-03-04T03:37:10.200Z,991.71
2018-03-04T03:38:10.285Z,991.68
2018-03-04T03:39:10.214Z,991.68
2018-03-04T03:40:10.226Z,991.72
2018-03-04T03:41:10.229Z,991.71
2018-03-04T03:42:10.237Z,991.71
2018-03-04T03:43:10.246Z,991.71
2018-03-04T03:44:10.289Z,991.69
2018-03-04T03:45:10.258Z,991.7
2018-03-04T03:46:10.333Z,991.74
2018-03-04T03:47:10.353Z,991.73
2018-03-04T03:48:10.362Z,991.71
2018-03-04T03:49:10.291Z,991.69
2018-03-04T03:50:10.298Z,991.67
2018-03-04T03:51:10.306Z,991.67
2018-03-04T03:52:10.316Z,991.65
2018-03-04T03:53:10.321Z,991.62
2018-03-04T03:54:10.330Z,991.62
2018-03-04T03:55:10.335Z,991.6
2018-03-04T03:56:10.343Z,991.63
2018-03-04T03:57:10.447Z,991.58
2018-03-04T03:58:10.361Z,991.58
2018-03-04T03:59:10.416Z,991.55
2018-03-04T04:00:10.373Z,991.53
2018-03-04T04:01:10.380Z,991.52
2018-03-04T04:02:10.393Z,991.56
2018-03-04T04:03:10.397Z,991.55
2018-03-04T04:04:10.452Z,991.5
2018-03-04T04:05:10.412Z,991.51
2018-03-04T04:06:10.419Z,991.5
2018-03-04T04:07:10.427Z,991.57
2018-03-04T04:08:10.438Z,991.54
2018-03-04T04:09:10.498Z,991.51
2018-03-04T04:10:10.449Z,991.55
2018-03-04T04:11:10.457Z,991.52
2018-03-04T04:12:10.464Z,991.6
2018-03-04T04:13:10.472Z,991.57
2018-03-04T04:14:10.528Z,991.61
2018-03-04T04:15:10.490Z,991.62
2018-03-04T04:16:10.494Z,991.64
2018-03-04T04:17:10.508Z,991.64
2018-03-04T04:18:10.509Z,991.63
2018-03-04T04:19:10.567Z,991.65
2018-03-04T04:20:10.525Z,991.59
2018-03-04T04:21:10.532Z,991.6
2018-03-04T04:22:10.540Z,991.66
2018-03-04T04:23:10.547Z,991.62
2018-03-04T04:24:10.608Z,991.6
2018-03-04T04:25:10.620Z,991.64
2018-03-04T04:26:10.570Z,991.64
2018-03-04T04:27:10.577Z,991.62
2018-03-04T04:28:10.586Z,991.62
2018-03-04T04:29:10.641Z,991.62
2018-03-04T04:30:10.600Z,991.57
2018-03-04T04:31:10.608Z,991.59
2018-03-04T04:32:10.616Z,991.54
2018-03-04T04:33:10.622Z,991.55
2018-03-04T04:34:10.679Z,991.56
2018-03-04T04:35:10.640Z,991.53
2018-03-04T04:36:10.646Z,991.54
2018-03-04T04:37:10.652Z,991.48
2018-03-04T04:38:10.660Z,991.53
2018-03-04T04:39:10.719Z,991.47
2018-03-04T04:40:10.676Z,991.49
2018-03-04T04:41:10.684Z,991.44
2018-03-04T04:42:10.690Z,991.41
2018-03-04T04:43:10.697Z,991.45
2018-03-04T04:44:10.782Z,991.44
2018-03-04T04:45:10.715Z,991.42
2018-03-04T04:46:10.723Z,991.43
2018-03-04T04:47:10.730Z,991.41
2018-03-04T04:48:10.740Z,991.39
2018-03-04T04:49:10.749Z,991.37
2018-03-04T04:50:10.754Z,991.37
2018-03-04T04:51:10.759Z,991.34
2018-03-04T04:52:10.768Z,991.38
2018-03-04T04:53:10.774Z,991.37
2018-03-04T04:54:10.781Z,991.36
2018-03-04T04:55:10.789Z,991.35
2018-03-04T04:56:10.799Z,991.36
2018-03-04T04:57:10.806Z,991.33
2018-03-04T04:58:10.998Z,991.34
2018-03-04T04:59:10.820Z,991.31
2018-03-04T05:00:10.827Z,991.33
2018-03-04T05:01:10.834Z,991.3
2018-03-04T05:02:10.850Z,991.36
2018-03-04T05:03:10.851Z,991.33
2018-03-04T05:04:10.869Z,991.34
2018-03-04T05:05:10.865Z,991.33
2018-03-04T05:06:10.872Z,991.27
2018-03-04T05:07:10.880Z,991.27
2018-03-04T05:08:10.888Z,991.25
2018-03-04T05:09:10.895Z,991.27
2018-03-04T05:10:10.903Z,991.31
2018-03-04T05:11:10.913Z,991.23
2018-03-04T05:12:10.918Z,991.24
2018-03-04T05:13:10.926Z,991.21
2018-03-04T05:14:10.934Z,991.23
2018-03-04T05:15:10.941Z,991.23
2018-03-04T05:16:10.990Z,991.21
2018-03-04T05:17:10.956Z,991.22
2018-03-04T05:18:10.963Z,991.19
2018-03-04T05:19:10.972Z,991.21
2018-03-04T05:20:10.979Z,991.24
2018-03-04T05:21:10.986Z,991.25
2018-03-04T05:22:10.997Z,991.2
2018-03-04T05:23:11.001Z,991.19
2018-03-04T05:24:11.009Z,991.19
2018-03-04T05:25:11.027Z,991.22
2018-03-04T05:26:11.025Z,991.2
2018-03-04T05:27:11.030Z,991.17
2018-03-04T05:28:11.040Z,991.19
2018-03-04T05:29:11.046Z,991.21
2018-03-04T05:30:11.055Z,991.17
2018-03-04T05:31:11.061Z,991.12
2018-03-04T05:32:11.068Z,991.18
2018-03-04T05:33:11.078Z,991.2
2018-03-04T05:34:11.085Z,991.18
2018-03-04T05:35:11.091Z,991.17
2018-03-04T05:36:11.103Z,991.21
2018-03-04T05:37:11.107Z,991.16
2018-03-04T05:38:11.117Z,991.16
2018-03-04T05:39:11.124Z,991.14
2018-03-04T05:40:11.129Z,991.18
2018-03-04T05:41:11.138Z,991.18
2018-03-04T05:42:11.145Z,991.18
2018-03-04T05:43:11.153Z,991.17
2018-03-04T05:44:11.160Z,991.19
2018-03-04T05:45:11.168Z,991.16
2018-03-04T05:46:11.175Z,991.09
2018-03-04T05:47:11.184Z,991.12
2018-03-04T05:48:11.193Z,991.13
2018-03-04T05:49:11.196Z,991.18
2018-03-04T05:50:11.206Z,991.12
2018-03-04T05:51:11.214Z,991.12
2018-03-04T05:52:11.224Z,991.13
2018-03-04T05:53:11.227Z,991.11
2018-03-04T05:54:11.236Z,991.11
2018-03-04T05:55:11.246Z,991.13
2018-03-04T05:56:11.263Z,991.16
2018-03-04T05:57:11.260Z,991.15
2018-03-04T05:58:11.265Z,991.15
2018-03-04T05:59:11.275Z,991.17
2018-03-04T06:00:11.285Z,991.17
2018-03-04T06:01:11.289Z,991.16
2018-03-04T06:02:11.296Z,991.15
2018-03-04T06:03:11.306Z,991.17
2018-03-04T06:04:11.312Z,991.2
2018-03-04T06:05:11.318Z,991.19
2018-03-04T06:06:11.326Z,991.2
2018-03-04T06:07:11.334Z,991.22
2018-03-04T06:08:11.341Z,991.24
2018-03-04T06:09:11.356Z,991.23
2018-03-04T06:10:11.357Z,991.22
2018-03-04T06:11:11.370Z,991.2
2018-03-04T06:12:11.372Z,991.21
2018-03-04T06:13:11.384Z,991.23
2018-03-04T06:14:11.390Z,991.19
2018-03-04T06:15:11.394Z,991.21
2018-03-04T06:16:11.405Z,991.22
2018-03-04T06:17:11.408Z,991.2
2018-03-04T06:18:11.418Z,991.25
2018-03-04T06:19:11.425Z,991.25
2018-03-04T06:20:11.439Z,991.21
2018-03-04T06:21:11.441Z,991.27
2018-03-04T06:22:11.450Z,991.24
2018-03-04T06:23:11.455Z,991.24
2018-03-04T06:24:11.464Z,991.26
2018-03-04T06:25:11.474Z,991.25
2018-03-04T06:26:11.480Z,991.24
2018-03-04T06:27:11.489Z,991.23
2018-03-04T06:28:11.494Z,991.22
2018-03-04T06:29:11.500Z,991.22
2018-03-04T06:30:11.507Z,991.2
2018-03-04T06:31:11.517Z,991.23
2018-03-04T06:32:11.525Z,991.21
2018-03-04T06:33:11.530Z,991.24
2018-03-04T06:34:11.539Z,991.27
2018-03-04T06:35:11.546Z,991.24
2018-03-04T06:36:11.554Z,991.26
2018-03-04T06:37:11.561Z,991.27
2018-03-04T06:38:11.570Z,991.3
2018-03-04T06:39:11.576Z,991.29
2018-03-04T06:40:11.635Z,991.28
2018-03-04T06:41:11.592Z,991.26
2018-03-04T06:42:11.599Z,991.27
2018-03-04T06:43:11.626Z,991.24
2018-03-04T06:44:11.615Z,991.24
2018-03-04T06:45:11.673Z,991.24
2018-03-04T06:46:11.631Z,991.2
2018-03-04T06:47:11.664Z,991.25
2018-03-04T06:48:11.646Z,991.26
2018-03-04T06:49:11.654Z,991.2
2018-03-04T06:50:11.716Z,991.3
2018-03-04T06:51:11.667Z,991.26
2018-03-04T06:52:11.677Z,991.25
2018-03-04T06:53:11.683Z,991.32
2018-03-04T06:54:11.692Z,991.27
2018-03-04T06:55:11.749Z,991.33
2018-03-04T06:56:11.707Z,991.29
2018-03-04T06:57:11.716Z,991.28
2018-03-04T06:58:11.722Z,991.32
2018-03-04T06:59:11.733Z,991.28
2018-03-04T07:00:11.737Z,991.3
2018-03-04T07:01:11.744Z,991.31
2018-03-04T07:02:11.752Z,991.26
2018-03-04T07:03:11.762Z,991.27
2018-03-04T07:04:11.768Z,991.26
2018-03-04T07:05:11.777Z,991.29
2018-03-04T07:06:11.784Z,991.26
2018-03-04T07:07:11.791Z,991.23
2018-03-04T07:08:11.801Z,991.22
2018-03-04T07:09:11.809Z,991.23
2018-03-04T07:10:11.817Z,991.19
2018-03-04T07:11:11.822Z,991.21
2018-03-04T07:12:11.832Z,991.17
2018-03-04T07:13:11.836Z,991.15
2018-03-04T07:14:11.845Z,991.16
2018-03-04T07:15:11.853Z,991.2
2018-03-04T07:16:11.861Z,991.2
2018-03-04T07:17:11.868Z,991.18
2018-03-04T07:18:11.879Z,991.18
2018-03-04T07:19:11.885Z,991.17
2018-03-04T07:20:11.890Z,991.19
2018-03-04T07:21:11.897Z,991.21
2018-03-04T07:22:11.907Z,991.2
2018-03-04T07:23:11.914Z,991.24
2018-03-04T07:24:11.920Z,991.22
2018-03-04T07:25:11.929Z,991.21
2018-03-04T07:26:11.936Z,991.16
2018-03-04T07:27:11.949Z,991.24
2018-03-04T07:28:11.961Z,991.21
2018-03-04T07:29:11.961Z,991.22
2018-03-04T07:30:11.968Z,991.16
2018-03-04T07:31:11.978Z,991.21
2018-03-04T07:32:11.984Z,991.18
2018-03-04T07:33:11.992Z,991.2
2018-03-04T07:34:12.000Z,991.15
2018-03-04T07:35:12.008Z,991.21
2018-03-04T07:36:12.016Z,991.26
2018-03-04T07:37:12.025Z,991.2
2018-03-04T07:38:12.032Z,991.2
2018-03-04T07:39:12.037Z,991.19
2018-03-04T07:40:12.046Z,991.22
2018-03-04T07:41:12.055Z,991.19
2018-03-04T07:42:12.062Z,991.18
2018-03-04T07:43:12.069Z,991.22
2018-03-04T07:44:12.081Z,991.19
2018-03-04T07:45:12.088Z,991.17
2018-03-04T07:46:12.094Z,991.2
2018-03-04T07:47:12.101Z,991.19
2018-03-04T07:48:12.108Z,991.17
2018-03-04T07:49:12.117Z,991.17
2018-03-04T07:50:12.125Z,991.16
2018-03-04T07:51:12.134Z,991.2
2018-03-04T07:52:12.141Z,991.18
2018-03-04T07:53:12.148Z,991.19
2018-03-04T07:54:12.157Z,991.18
2018-03-04T07:55:12.165Z,991.23
2018-03-04T07:56:12.173Z,991.21
2018-03-04T07:57:12.181Z,991.19
2018-03-04T07:58:12.188Z,991.16
2018-03-04T07:59:12.198Z,991.16
2018-03-04T08:00:12.205Z,991.14
2018-03-04T08:01:12.214Z,991.15
2018-03-04T08:02:12.225Z,991.13
2018-03-04T08:03:12.229Z,991.11
2018-03-04T08:04:12.236Z,991.16
2018-03-04T08:05:12.253Z,991.11
2018-03-04T08:06:12.252Z,991.11
2018-03-04T08:07:12.261Z,991.08
2018-03-04T08:08:12.272Z,991.02
2018-03-04T08:09:12.275Z,991.07
2018-03-04T08:10:12.284Z,991.06
2018-03-04T08:11:12.307Z,991.02
2018-03-04T08:12:12.300Z,991.02
2018-03-04T08:13:12.307Z,991.02
2018-03-04T08:14:12.315Z,990.98
2018-03-04T08:15:12.324Z,990.98
2018-03-04T08:16:12.333Z,991.01
2018-03-04T08:17:12.341Z,991.01
2018-03-04T08:18:12.350Z,991.02
2018-03-04T08:19:12.356Z,991.01
2018-03-04T08:20:12.365Z,991
2018-03-04T08:21:12.372Z,991
2018-03-04T08:22:12.381Z,990.98
2018-03-04T08:23:12.388Z,990.93
2018-03-04T08:24:12.400Z,990.96
2018-03-04T08:25:12.405Z,990.98
2018-03-04T08:26:12.412Z,990.91
2018-03-04T08:27:12.420Z,990.92
2018-03-04T08:28:12.428Z,990.9
2018-03-04T08:29:12.438Z,990.88
2018-03-04T08:30:12.444Z,990.86
2018-03-04T08:31:12.454Z,990.86
2018-03-04T08:32:12.461Z,990.83
2018-03-04T08:33:12.470Z,990.87
2018-03-04T08:34:12.477Z,990.82
2018-03-04T08:35:12.485Z,990.88
2018-03-04T08:36:12.496Z,990.86
2018-03-04T08:37:12.506Z,990.83
2018-03-04T08:38:12.510Z,990.85
2018-03-04T08:39:12.520Z,990.84
2018-03-04T08:40:12.527Z,990.82
2018-03-04T08:41:12.535Z,990.82
2018-03-04T08:42:12.553Z,990.81
2018-03-04T08:43:12.552Z,990.85
2018-03-04T08:44:12.597Z,990.84
2018-03-04T08:45:12.568Z,990.84
2018-03-04T08:46:12.577Z,990.83
2018-03-04T08:47:12.590Z,990.8
2018-03-04T08:48:12.595Z,990.8
2018-03-04T08:49:12.601Z,990.8
2018-03-04T08:50:12.611Z,990.81
2018-03-04T08:51:12.620Z,990.83
2018-03-04T08:52:12.627Z,990.78
2018-03-04T08:53:12.635Z,990.84
2018-03-04T08:54:12.645Z,990.8
2018-03-04T08:55:12.653Z,990.79
2018-03-04T08:56:12.667Z,990.81
2018-03-04T08:57:12.668Z,990.83
2018-03-04T08:58:12.678Z,990.8
2018-03-04T08:59:12.693Z,990.77
2018-03-04T09:00:12.694Z,990.8
2018-03-04T09:01:12.703Z,990.77
2018-03-04T09:02:12.742Z,990.77
2018-03-04T09:03:12.719Z,990.77
2018-03-04T09:04:12.730Z,990.81
2018-03-04T09:05:12.737Z,990.79
2018-03-04T09:06:12.745Z,990.81
2018-03-04T09:07:12.753Z,990.83
2018-03-04T09:08:12.761Z,990.85
2018-03-04T09:09:12.771Z,990.81
2018-03-04T09:10:12.778Z,990.82
2018-03-04T09:11:12.788Z,990.84
2018-03-04T09:12:12.796Z,990.84
2018-03-04T09:13:12.807Z,990.81
2018-03-04T09:14:12.814Z,990.79
2018-03-04T09:15:12.824Z,990.82
2018-03-04T09:16:12.831Z,990.83
2018-03-04T09:17:12.840Z,990.85
2018-03-04T09:18:12.848Z,990.81
2018-03-04T09:19:12.857Z,990.76
2018-03-04T09:20:12.865Z,990.72
2018-03-04T09:21:12.873Z,990.75
2018-03-04T09:22:12.882Z,990.77
2018-03-04T09:23:12.892Z,990.76
2018-03-04T09:24:12.901Z,990.7
2018-03-04T09:25:12.909Z,990.69
2018-03-04T09:26:12.921Z,990.73
2018-03-04T09:27:12.927Z,990.69
2018-03-04T09:28:12.935Z,990.67
2018-03-04T09:29:12.945Z,990.67
2018-03-04T09:30:12.955Z,990.65
2018-03-04T09:31:12.962Z,990.65
2018-03-04T09:32:12.972Z,990.68
2018-03-04T09:33:12.989Z,990.72
2018-03-04T09:34:13.055Z,990.69
2018-03-04T09:35:12.998Z,990.74
2018-03-04T09:36:13.057Z,990.71
2018-03-04T09:37:13.114Z,990.7
2018-03-04T09:38:13.031Z,990.72
2018-03-04T09:39:13.034Z,990.74
2018-03-04T09:40:13.047Z,990.71
2018-03-04T09:41:13.106Z,990.75
2018-03-04T09:42:13.060Z,990.72
2018-03-04T09:43:13.070Z,990.68
2018-03-04T09:44:13.079Z,990.7
2018-03-04T09:45:13.087Z,990.69
2018-03-04T09:46:13.148Z,990.68
2018-03-04T09:47:13.104Z,990.64
2018-03-04T09:48:13.119Z,990.64
2018-03-04T09:49:13.124Z,990.65
2018-03-04T09:50:13.132Z,990.63
2018-03-04T09:51:13.141Z,990.58
2018-03-04T09:52:13.151Z,990.6
2018-03-04T09:53:13.162Z,990.55
2018-03-04T09:54:13.169Z,990.54
2018-03-04T09:55:13.178Z,990.56
2018-03-04T09:56:13.194Z,990.59
2018-03-04T09:57:13.198Z,990.57
2018-03-04T09:58:13.206Z,990.58
2018-03-04T09:59:13.215Z,990.61
2018-03-04T10:00:13.228Z,990.64
2018-03-04T10:01:13.284Z,990.64
2018-03-04T10:02:13.243Z,990.66
2018-03-04T10:03:13.252Z,990.63
2018-03-04T10:04:13.263Z,990.64
2018-03-04T10:05:13.272Z,990.57
2018-03-04T10:06:13.281Z,990.61
2018-03-04T10:07:13.290Z,990.6
2018-03-04T10:08:13.304Z,990.63
2018-03-04T10:09:13.308Z,990.63
2018-03-04T10:10:13.320Z,990.61
2018-03-04T10:11:13.379Z,990.59
2018-03-04T10:12:13.337Z,990.6
2018-03-04T10:13:13.348Z,990.64
2018-03-04T10:14:13.360Z,990.59
2018-03-04T10:15:13.366Z,990.56
2018-03-04T10:16:13.629Z,990.54
2018-03-04T10:17:13.385Z,990.51
2018-03-04T10:18:13.397Z,990.47
2018-03-04T10:19:13.405Z,990.43
2018-03-04T10:20:13.415Z,990.44
2018-03-04T10:21:13.473Z,990.44
2018-03-04T10:22:13.436Z,990.41
2018-03-04T10:23:13.471Z,990.43
2018-03-04T10:24:13.454Z,990.42
2018-03-04T10:25:13.465Z,990.43
2018-03-04T10:26:13.532Z,990.44
2018-03-04T10:27:13.488Z,990.43
2018-03-04T10:28:13.515Z,990.42
2018-03-04T10:29:13.509Z,990.42
2018-03-04T10:30:13.513Z,990.41
2018-03-04T10:31:13.574Z,990.41
2018-03-04T10:32:13.534Z,990.44
2018-03-04T10:33:13.550Z,990.37
2018-03-04T10:34:13.553Z,990.35
2018-03-04T10:35:13.565Z,990.32
2018-03-04T10:36:13.575Z,990.37
2018-03-04T10:37:13.628Z,990.34
2018-03-04T10:38:13.606Z,990.35
2018-03-04T10:39:13.605Z,990.39
2018-03-04T10:40:13.616Z,990.34
2018-03-04T10:41:13.677Z,990.41
2018-03-04T10:42:13.638Z,990.37
2018-03-04T10:43:13.645Z,990.31
2018-03-04T10:44:13.658Z,990.34
2018-03-04T10:45:13.667Z,990.24
2018-03-04T10:46:13.728Z,990.24
2018-03-04T10:47:13.687Z,990.2
2018-03-04T10:48:13.697Z,990.21
2018-03-04T10:49:13.707Z,990.16
2018-03-04T10:50:13.718Z,990.16
2018-03-04T10:51:13.730Z,990.14
2018-03-04T10:52:13.738Z,990.15
2018-03-04T10:53:13.748Z,990.15
2018-03-04T10:54:13.759Z,990.11
2018-03-04T10:55:13.771Z,990.15
2018-03-04T10:56:13.780Z,990.12
2018-03-04T10:57:13.792Z,990.09
2018-03-04T10:58:13.802Z,990.12
2018-03-04T10:59:13.814Z,990.11
2018-03-04T11:00:13.834Z,990.12
2018-03-04T11:01:13.884Z,990.06
2018-03-04T11:02:13.847Z,990.12
2018-03-04T11:03:13.858Z,990.08
2018-03-04T11:04:13.867Z,990
2018-03-04T11:05:13.892Z,989.98
2018-03-04T11:06:13.940Z,989.96
2018-03-04T11:07:13.900Z,989.95
2018-03-04T11:08:13.911Z,989.94
2018-03-04T11:09:13.922Z,989.92
2018-03-04T11:10:13.937Z,989.92
2018-03-04T11:11:13.994Z,989.95
2018-03-04T11:12:13.955Z,989.92
2018-03-04T11:13:13.974Z,989.87
2018-03-04T11:14:13.979Z,989.83
2018-03-04T11:15:14.042Z,989.81
2018-03-04T11:16:14.001Z,989.77
2018-03-04T11:17:14.013Z,989.86
2018-03-04T11:18:14.020Z,989.84
2018-03-04T11:19:14.033Z,989.86
2018-03-04T11:20:14.044Z,989.88
2018-03-04T11:21:14.056Z,989.88
2018-03-04T11:22:14.065Z,989.91
2018-03-04T11:23:14.079Z,989.87
2018-03-04T11:24:14.090Z,989.89
2018-03-04T11:25:14.113Z,989.92
2018-03-04T11:26:14.117Z,989.92
2018-03-04T11:27:14.125Z,989.9
2018-03-04T11:28:14.137Z,989.92
2018-03-04T11:29:14.148Z,989.91
2018-03-04T11:30:14.162Z,989.9
2018-03-04T11:31:14.171Z,989.89
2018-03-04T11:32:14.186Z,989.92
2018-03-04T11:33:14.193Z,989.93
2018-03-04T11:34:14.209Z,989.96
2018-03-04T11:35:14.218Z,989.88
2018-03-04T11:36:14.229Z,989.94
2018-03-04T11:37:14.242Z,989.87
2018-03-04T11:38:14.254Z,989.84
2018-03-04T11:39:14.266Z,989.9
2018-03-04T11:40:14.277Z,989.82
2018-03-04T11:41:14.288Z,989.75
2018-03-04T11:42:14.328Z,989.81
2018-03-04T11:43:14.313Z,989.8
2018-03-04T11:44:14.325Z,989.8
2018-03-04T11:45:14.337Z,989.8
2018-03-04T11:46:14.349Z,989.78
2018-03-04T11:47:14.364Z,989.82
2018-03-04T11:48:14.374Z,989.74
2018-03-04T11:49:14.389Z,989.8
2018-03-04T11:50:14.400Z,989.8
2018-03-04T11:51:14.410Z,989.77
2018-03-04T11:52:14.423Z,989.76
2018-03-04T11:53:14.438Z,989.72
2018-03-04T11:54:14.448Z,989.71
2018-03-04T11:55:14.460Z,989.67
2018-03-04T11:56:14.474Z,989.73
2018-03-04T11:57:14.485Z,989.62
2018-03-04T11:58:14.498Z,989.6
2018-03-04T11:59:14.510Z,989.64
2018-03-04T12:00:14.523Z,989.64
2018-03-04T12:01:14.535Z,989.55
2018-03-04T12:02:14.547Z,989.54
2018-03-04T12:03:14.562Z,989.51
2018-03-04T12:04:14.574Z,989.56
2018-03-04T12:05:14.587Z,989.49
2018-03-04T12:06:14.599Z,989.42
2018-03-04T12:07:14.610Z,989.42
2018-03-04T12:08:14.625Z,989.43
2018-03-04T12:09:14.636Z,989.42
2018-03-04T12:10:14.648Z,989.38
2018-03-04T12:11:14.663Z,989.42
2018-03-04T12:12:14.676Z,989.4
2018-03-04T12:13:14.688Z,989.44
2018-03-04T12:14:14.702Z,989.44
2018-03-04T12:15:14.767Z,989.44
2018-03-04T12:16:14.727Z,989.43
2018-03-04T12:17:14.789Z,989.4
2018-03-04T12:18:14.752Z,989.36
2018-03-04T12:19:14.786Z,989.35
2018-03-04T12:20:14.780Z,989.34
2018-03-04T12:21:14.791Z,989.32
2018-03-04T12:22:14.806Z,989.32
2018-03-04T12:23:14.822Z,989.34
2018-03-04T12:24:14.831Z,989.31
2018-03-04T12:25:14.845Z,989.33
2018-03-04T12:26:14.861Z,989.27
2018-03-04T12:27:14.873Z,989.29
2018-03-04T12:28:14.885Z,989.29
2018-03-04T12:29:14.898Z,989.28
2018-03-04T12:30:14.912Z,989.33
2018-03-04T12:31:14.925Z,989.42